createdAt,value
2018-07-24T00:01:10.938Z,20.21
2018-07-24T00:03:39.494Z,20.19
2018-07-24T00:06:07.800Z,20.10
2018-07-24T00:08:36.127Z,20.05
2018-07-24T00:11:05.040Z,20.05
2018-07-24T00:13:33.294Z,19.93
2018-07-24T00:16:02.784Z,19.88
2018-07-24T00:18:31.179Z,19.79
2018-07-24T00:20:59.538Z,19.72
2018-07-24T00:23:27.915Z,19.71
2018-07-24T00:25:56.302Z,19.67
2018-07-24T00:28:25.212Z,19.64
2018-07-24T00:30:53.564Z,19.58
2018-07-24T00:33:21.951Z,19.58
2018-07-24T00:35:50.287Z,19.57
2018-07-24T00:38:18.607Z,19.56
2018-07-24T00:40:46.945Z,19.55
2018-07-24T00:43:15.282Z,19.55
2018-07-24T00:45:43.609Z,19.52
2018-07-24T00:48:11.951Z,19.50
2018-07-24T00:50:40.320Z,19.48
2018-07-24T00:53:08.704Z,19.41
2018-07-24T00:55:37.060Z,19.34
2018-07-24T00:58:05.611Z,19.30
2018-07-24T01:00:33.970Z,19.23
2018-07-24T01:03:02.317Z,19.19
2018-07-24T01:05:30.625Z,19.14
2018-07-24T01:07:58.926Z,19.14
2018-07-24T01:10:27.233Z,19.08
2018-07-24T01:12:55.574Z,19.01
2018-07-24T01:15:23.967Z,19.01
2018-07-24T01:17:52.299Z,18.95
2018-07-24T01:20:20.615Z,19.02
2018-07-24T01:22:48.958Z,19.02
2018-07-24T01:25:17.360Z,18.99
2018-07-24T01:27:45.725Z,19.00
2018-07-24T01:30:14.045Z,18.97
2018-07-24T01:32:42.360Z,18.94
2018-07-24T01:35:10.657Z,18.91
2018-07-24T01:37:38.993Z,18.87
2018-07-24T01:40:07.314Z,18.86
2018-07-24T01:42:35.666Z,18.83
2018-07-24T01:45:04.021Z,18.82
2018-07-24T01:47:32.332Z,18.78
2018-07-24T01:50:00.721Z,18.76
2018-07-24T01:52:29.087Z,18.73
2018-07-24T01:54:57.443Z,18.74
2018-07-24T01:57:25.807Z,18.68
2018-07-24T01:59:54.127Z,18.70
2018-07-24T02:02:22.476Z,18.69
2018-07-24T02:04:50.786Z,18.66
2018-07-24T02:07:19.123Z,18.62
2018-07-24T02:09:47.482Z,18.58
2018-07-24T02:12:16.329Z,18.54
2018-07-24T02:14:44.970Z,18.52
2018-07-24T02:17:13.545Z,18.42
2018-07-24T02:19:41.937Z,18.43
2018-07-24T02:22:10.271Z,18.37
2018-07-24T02:24:39.010Z,18.31
2018-07-24T02:27:07.342Z,18.25
2018-07-24T02:29:35.678Z,18.25
2018-07-24T02:32:04.022Z,18.28
2018-07-24T02:34:32.394Z,18.21
2018-07-24T02:37:00.751Z,18.23
2018-07-24T02:39:29.123Z,18.20
2018-07-24T02:41:57.488Z,18.17
2018-07-24T02:44:26.418Z,18.13
2018-07-24T02:46:54.752Z,18.02
2018-07-24T02:49:23.095Z,18.00
2018-07-24T02:51:51.473Z,17.98
2018-07-24T02:54:19.823Z,17.94
2018-07-24T02:56:48.193Z,17.88
2018-07-24T02:59:16.565Z,17.84
2018-07-24T03:01:45.240Z,17.85
2018-07-24T03:04:13.687Z,17.84
2018-07-24T03:06:42.112Z,17.83
2018-07-24T03:09:11.700Z,17.76
2018-07-24T03:11:40.024Z,17.72
2018-07-24T03:14:08.752Z,17.72
2018-07-24T03:16:37.101Z,17.70
2018-07-24T03:19:05.801Z,17.71
2018-07-24T03:21:34.465Z,17.69
2018-07-24T03:24:02.799Z,17.72
2018-07-24T03:26:31.122Z,17.74
2018-07-24T03:28:59.481Z,17.73
2018-07-24T03:31:27.914Z,17.72
2018-07-24T03:33:56.630Z,17.69
2018-07-24T03:36:25.016Z,17.65
2018-07-24T03:38:53.547Z,17.67
2018-07-24T03:41:21.896Z,17.68
2018-07-24T03:43:50.208Z,17.66
2018-07-24T03:46:18.575Z,17.67
2018-07-24T03:48:47.094Z,17.68
2018-07-24T03:51:15.446Z,17.64
2018-07-24T03:53:43.827Z,17.62
2018-07-24T03:56:12.167Z,17.62
2018-07-24T03:58:40.532Z,17.65
2018-07-24T04:01:08.900Z,17.64
2018-07-24T04:03:37.292Z,17.63
2018-07-24T04:06:05.629Z,17.63
2018-07-24T04:08:33.993Z,17.62
2018-07-24T04:11:02.326Z,17.56
2018-07-24T04:13:30.627Z,17.60
2018-07-24T04:15:59.006Z,17.61
2018-07-24T04:18:30.437Z,17.58
2018-07-24T04:20:58.769Z,17.64
2018-07-24T04:23:27.091Z,17.64
2018-07-24T04:25:55.411Z,17.64
2018-07-24T04:28:23.874Z,17.64
2018-07-24T04:30:52.280Z,17.67
2018-07-24T04:33:20.585Z,17.68
2018-07-24T04:35:48.914Z,17.70
2018-07-24T04:38:17.384Z,17.72
2018-07-24T04:40:45.761Z,17.77
2018-07-24T04:43:14.157Z,17.81
2018-07-24T04:45:42.857Z,17.82
2018-07-24T04:48:11.197Z,17.86
2018-07-24T04:50:39.524Z,17.93
2018-07-24T04:53:08.548Z,18.05
2018-07-24T04:55:37.078Z,18.12
2018-07-24T04:58:05.536Z,18.17
2018-07-24T05:00:34.203Z,18.23
2018-07-24T05:03:03.804Z,18.22
2018-07-24T05:05:32.164Z,18.26
2018-07-24T05:08:00.514Z,18.29
2018-07-24T05:10:28.985Z,18.33
2018-07-24T05:12:57.624Z,18.38
2018-07-24T05:15:26.005Z,18.42
2018-07-24T05:17:54.471Z,18.48
2018-07-24T05:20:22.828Z,18.55
2018-07-24T05:22:51.338Z,18.61
2018-07-24T05:25:19.934Z,18.67
2018-07-24T05:27:48.674Z,18.71
2018-07-24T05:30:17.158Z,18.80
2018-07-24T05:32:45.935Z,18.90
2018-07-24T05:35:14.348Z,18.98
2018-07-24T05:37:42.986Z,19.10
2018-07-24T05:40:11.361Z,19.21
2018-07-24T05:42:39.745Z,19.28
2018-07-24T05:45:08.094Z,19.44
2018-07-24T05:47:36.438Z,19.54
2018-07-24T05:50:04.954Z,19.66
2018-07-24T05:52:33.369Z,19.83
2018-07-24T05:55:01.900Z,19.97
2018-07-24T05:57:30.225Z,20.25
2018-07-24T05:59:58.592Z,20.92
2018-07-24T06:02:27.025Z,21.87
2018-07-24T06:04:55.422Z,22.72
2018-07-24T06:07:23.779Z,23.08
2018-07-24T06:09:52.128Z,23.51
2018-07-24T06:12:20.540Z,23.49
2018-07-24T06:14:49.122Z,23.91
2018-07-24T06:17:17.533Z,24.29
2018-07-24T06:19:45.901Z,24.63
2018-07-24T06:22:14.240Z,24.80
2018-07-24T06:24:42.601Z,24.97
2018-07-24T06:27:10.959Z,25.18
2018-07-24T06:29:39.319Z,25.44
2018-07-24T06:32:07.696Z,25.36
2018-07-24T06:34:36.046Z,25.43
2018-07-24T06:37:04.427Z,25.52
2018-07-24T06:39:32.751Z,25.48
2018-07-24T06:42:01.117Z,25.22
2018-07-24T06:44:29.473Z,24.92
2018-07-24T06:46:57.788Z,24.93
2018-07-24T06:49:26.219Z,25.26
2018-07-24T06:51:54.589Z,25.58
2018-07-24T06:54:22.876Z,25.86
2018-07-24T06:56:51.220Z,25.96
2018-07-24T06:59:19.923Z,26.38
2018-07-24T07:01:48.260Z,26.18
2018-07-24T07:04:16.679Z,26.60
2018-07-24T07:06:45.029Z,26.66
2018-07-24T07:09:13.395Z,26.64
2018-07-24T07:11:41.757Z,26.55
2018-07-24T07:14:10.084Z,26.71
2018-07-24T07:16:38.404Z,27.02
2018-07-24T07:19:06.832Z,26.79
2018-07-24T07:21:35.453Z,27.43
2018-07-24T07:24:03.852Z,28.16
2018-07-24T07:26:32.267Z,29.07
2018-07-24T07:29:00.640Z,29.56
2018-07-24T07:31:29.004Z,29.60
2018-07-24T07:33:57.540Z,29.92
2018-07-24T07:36:25.870Z,30.04
2018-07-24T07:38:54.207Z,29.76
2018-07-24T07:41:22.532Z,30.25
2018-07-24T07:43:50.863Z,30.47
2018-07-24T07:46:19.246Z,30.71
2018-07-24T07:48:47.578Z,30.32
2018-07-24T07:51:15.923Z,30.24
2018-07-24T07:53:44.251Z,30.19
2018-07-24T07:56:12.608Z,29.99
2018-07-24T07:58:41.032Z,30.10
2018-07-24T08:01:09.269Z,30.04
2018-07-24T08:03:37.609Z,29.88
2018-07-24T08:06:05.985Z,29.86
2018-07-24T08:08:34.290Z,30.22
2018-07-24T08:11:02.626Z,30.24
2018-07-24T08:13:30.963Z,30.23
2018-07-24T08:15:59.344Z,29.75
2018-07-24T08:18:27.755Z,29.61
2018-07-24T08:20:56.132Z,29.55
2018-07-24T08:23:24.543Z,29.84
2018-07-24T08:25:52.860Z,29.68
2018-07-24T08:28:21.190Z,29.13
2018-07-24T08:30:49.539Z,29.22
2018-07-24T08:33:17.842Z,29.34
2018-07-24T08:35:46.190Z,29.35
2018-07-24T08:38:14.493Z,29.26
2018-07-24T08:40:42.801Z,29.19
2018-07-24T08:43:11.168Z,29.25
2018-07-24T08:45:39.477Z,28.85
2018-07-24T08:48:08.044Z,29.09
2018-07-24T08:50:36.387Z,29.17
2018-07-24T08:53:04.926Z,29.30
2018-07-24T08:55:33.695Z,29.25
2018-07-24T08:58:01.748Z,29.18
2018-07-24T09:00:30.323Z,29.02
2018-07-24T09:02:58.699Z,28.94
2018-07-24T09:05:27.001Z,28.95
2018-07-24T09:07:55.337Z,28.95
2018-07-24T09:10:23.696Z,29.15
2018-07-24T09:12:52.162Z,29.23
2018-07-24T09:15:20.506Z,29.55
2018-07-24T09:17:48.840Z,29.39
2018-07-24T09:20:17.256Z,29.51
2018-07-24T09:22:46.062Z,29.51
2018-07-24T09:25:14.469Z,29.63
2018-07-24T09:27:46.768Z,29.54
2018-07-24T09:30:15.161Z,29.50
2018-07-24T09:32:43.548Z,29.64
2018-07-24T09:35:12.300Z,29.46
2018-07-24T09:37:40.668Z,29.82
2018-07-24T09:40:09.020Z,29.42
2018-07-24T09:42:37.468Z,29.55
2018-07-24T09:45:07.866Z,29.51
2018-07-24T09:47:36.297Z,29.60
2018-07-24T09:50:04.972Z,29.71
2018-07-24T09:52:33.355Z,29.74
2018-07-24T09:55:02.627Z,29.83
2018-07-24T09:57:32.091Z,30.08
2018-07-24T10:00:00.428Z,30.11
2018-07-24T10:02:28.740Z,30.26
2018-07-24T10:04:57.059Z,30.34
2018-07-24T10:07:25.388Z,30.36
2018-07-24T10:09:53.714Z,30.51
2018-07-24T10:12:22.339Z,30.26
2018-07-24T10:14:52.042Z,30.51
2018-07-24T10:17:20.375Z,29.88
2018-07-24T10:19:49.371Z,29.97
2018-07-24T10:22:17.789Z,30.36
2018-07-24T10:24:46.072Z,30.35
2018-07-24T10:27:14.444Z,30.45
2018-07-24T10:29:42.804Z,30.40
2018-07-24T10:32:11.342Z,30.17
2018-07-24T10:34:40.456Z,30.39
2018-07-24T10:37:09.405Z,30.34
2018-07-24T10:39:37.734Z,30.39
2018-07-24T10:42:06.589Z,30.29
2018-07-24T10:44:35.318Z,30.17
2018-07-24T10:47:03.712Z,30.43
2018-07-24T10:49:32.015Z,30.51
2018-07-24T10:52:00.461Z,30.74
2018-07-24T10:54:28.791Z,30.60
2018-07-24T10:56:57.152Z,30.65
2018-07-24T10:59:25.527Z,30.93
2018-07-24T11:01:54.135Z,31.03
2018-07-24T11:04:22.471Z,30.92
2018-07-24T11:06:50.798Z,31.06
2018-07-24T11:09:19.103Z,31.31
2018-07-24T11:11:47.420Z,31.34
2018-07-24T11:14:15.754Z,31.21
2018-07-24T11:16:44.119Z,31.28
2018-07-24T11:19:12.425Z,30.97
2018-07-24T11:21:40.872Z,30.75
2018-07-24T11:24:09.302Z,30.69
2018-07-24T11:26:37.655Z,30.79
2018-07-24T11:29:06.126Z,30.85
2018-07-24T11:31:34.527Z,30.84
2018-07-24T11:34:02.895Z,30.64
2018-07-24T11:36:31.222Z,30.63
2018-07-24T11:38:59.552Z,30.50
2018-07-24T11:41:27.935Z,30.58
2018-07-24T11:43:56.363Z,30.62
2018-07-24T11:46:25.061Z,30.75
2018-07-24T11:48:53.421Z,31.03
2018-07-24T11:51:21.737Z,31.15
2018-07-24T11:53:50.029Z,31.33
2018-07-24T11:56:18.384Z,31.29
2018-07-24T11:58:46.767Z,31.18
2018-07-24T12:01:15.141Z,30.77
2018-07-24T12:03:43.591Z,30.95
2018-07-24T12:06:11.959Z,30.65
2018-07-24T12:08:40.301Z,30.77
2018-07-24T12:11:08.645Z,30.96
2018-07-24T12:13:37.058Z,30.97
2018-07-24T12:16:05.519Z,31.08
2018-07-24T12:18:33.914Z,31.14
2018-07-24T12:21:02.443Z,31.30
2018-07-24T12:23:30.789Z,31.31
2018-07-24T12:25:59.140Z,31.36
2018-07-24T12:28:27.495Z,31.35
2018-07-24T12:30:56.067Z,31.22
2018-07-24T12:33:24.383Z,31.30
2018-07-24T12:35:52.714Z,31.32
2018-07-24T12:38:21.075Z,31.38
2018-07-24T12:40:49.367Z,31.40
2018-07-24T12:43:17.685Z,31.37
2018-07-24T12:45:46.005Z,31.34
2018-07-24T12:48:14.361Z,31.36
2018-07-24T12:50:42.683Z,31.36
2018-07-24T12:53:11.194Z,31.45
2018-07-24T12:55:39.572Z,31.42
2018-07-24T12:58:07.920Z,31.49
2018-07-24T13:00:36.289Z,31.63
2018-07-24T13:03:04.681Z,31.82
2018-07-24T13:05:32.990Z,31.74
2018-07-24T13:08:01.348Z,31.72
2018-07-24T13:10:29.719Z,31.71
2018-07-24T13:12:58.097Z,31.70
2018-07-24T13:15:26.441Z,31.63
2018-07-24T13:17:54.920Z,31.64
2018-07-24T13:20:23.258Z,31.66
2018-07-24T13:22:51.591Z,31.50
2018-07-24T13:25:19.902Z,31.58
2018-07-24T13:27:48.403Z,31.56
2018-07-24T13:30:16.726Z,31.55
2018-07-24T13:32:45.058Z,31.62
2018-07-24T13:35:13.371Z,31.59
2018-07-24T13:37:41.733Z,31.50
2018-07-24T13:40:10.049Z,31.62
2018-07-24T13:42:38.403Z,31.42
2018-07-24T13:45:06.875Z,31.42
2018-07-24T13:47:35.121Z,31.43
2018-07-24T13:50:03.655Z,31.52
2018-07-24T13:52:31.964Z,31.61
2018-07-24T13:55:00.308Z,31.61
2018-07-24T13:57:28.667Z,31.68
2018-07-24T13:59:56.960Z,31.78
2018-07-24T14:02:25.279Z,31.87
2018-07-24T14:04:53.623Z,31.92
2018-07-24T14:07:21.953Z,32.00
2018-07-24T14:09:50.325Z,32.14
2018-07-24T14:12:18.695Z,32.10
2018-07-24T14:14:47.251Z,32.01
2018-07-24T14:17:15.601Z,32.04
2018-07-24T14:19:43.986Z,32.14
2018-07-24T14:22:12.383Z,31.95
2018-07-24T14:24:40.783Z,31.96
2018-07-24T14:27:09.225Z,32.02
2018-07-24T14:29:37.625Z,32.04
2018-07-24T14:32:06.053Z,31.86
2018-07-24T14:34:34.436Z,31.82
2018-07-24T14:37:02.808Z,31.85
2018-07-24T14:39:31.206Z,31.68
2018-07-24T14:41:59.578Z,31.68
2018-07-24T14:44:27.931Z,31.62
2018-07-24T14:46:56.252Z,31.47
2018-07-24T14:49:24.592Z,31.60
2018-07-24T14:51:52.949Z,31.59
2018-07-24T14:54:21.362Z,31.85
2018-07-24T14:56:49.797Z,31.73
2018-07-24T14:59:18.146Z,32.05
2018-07-24T15:01:46.459Z,32.18
2018-07-24T15:04:14.775Z,32.11
2018-07-24T15:06:43.130Z,32.14
2018-07-24T15:09:12.694Z,31.97
2018-07-24T15:11:41.310Z,31.95
2018-07-24T15:14:09.684Z,32.00
2018-07-24T15:16:38.039Z,31.90
2018-07-24T15:19:06.398Z,32.02
2018-07-24T15:21:34.733Z,32.06
2018-07-24T15:24:03.098Z,32.09
2018-07-24T15:26:31.486Z,32.01
2018-07-24T15:28:59.820Z,32.06
2018-07-24T15:31:28.472Z,32.08
2018-07-24T15:33:56.841Z,32.16
2018-07-24T15:36:25.165Z,32.16
2018-07-24T15:38:53.509Z,32.08
2018-07-24T15:41:21.903Z,32.17
2018-07-24T15:43:50.160Z,32.04
2018-07-24T15:46:18.488Z,31.97
2018-07-24T15:48:46.850Z,31.86
2018-07-24T15:51:15.191Z,31.88
2018-07-24T15:53:43.763Z,31.85
2018-07-24T15:56:12.240Z,31.83
2018-07-24T15:58:40.516Z,31.93
2018-07-24T16:01:08.910Z,31.95
2018-07-24T16:03:37.316Z,32.04
2018-07-24T16:06:05.724Z,32.03
2018-07-24T16:08:34.072Z,32.11
2018-07-24T16:11:02.578Z,32.10
2018-07-24T16:13:30.958Z,31.96
2018-07-24T16:15:59.332Z,32.02
2018-07-24T16:18:27.722Z,32.02
2018-07-24T16:20:56.088Z,31.94
2018-07-24T16:23:24.432Z,31.84
2018-07-24T16:25:52.805Z,31.81
2018-07-24T16:28:21.131Z,31.79
2018-07-24T16:30:49.507Z,31.90
2018-07-24T16:33:17.815Z,31.95
2018-07-24T16:35:46.133Z,31.88
2018-07-24T16:38:14.455Z,31.91
2018-07-24T16:40:42.824Z,31.89
2018-07-24T16:43:11.156Z,31.92
2018-07-24T16:45:39.533Z,31.82
2018-07-24T16:48:07.856Z,31.76
2018-07-24T16:50:36.224Z,31.74
2018-07-24T16:53:04.586Z,31.65
2018-07-24T16:55:32.988Z,31.63
2018-07-24T16:58:01.428Z,31.68
2018-07-24T17:00:29.753Z,31.69
2018-07-24T17:02:58.148Z,31.71
2018-07-24T17:05:26.480Z,31.72
2018-07-24T17:07:54.844Z,31.73
2018-07-24T17:10:23.199Z,31.77
2018-07-24T17:12:51.572Z,31.77
2018-07-24T17:15:19.924Z,31.79
2018-07-24T17:17:48.241Z,31.75
2018-07-24T17:20:16.548Z,31.74
2018-07-24T17:22:44.953Z,31.69
2018-07-24T17:25:15.738Z,31.66
2018-07-24T17:27:44.108Z,31.69
2018-07-24T17:30:15.198Z,31.63
2018-07-24T17:32:46.619Z,31.69
2018-07-24T17:35:15.575Z,31.70
2018-07-24T17:37:47.704Z,31.65
2018-07-24T17:40:16.686Z,31.59
2018-07-24T17:42:46.952Z,31.59
2018-07-24T17:45:18.984Z,31.58
2018-07-24T17:47:47.480Z,31.54
2018-07-24T17:50:15.852Z,31.55
2018-07-24T17:52:44.240Z,31.48
2018-07-24T17:55:17.466Z,31.42
2018-07-24T17:57:45.988Z,31.36
2018-07-24T18:00:14.663Z,31.26
2018-07-24T18:02:44.064Z,31.17
2018-07-24T18:05:12.843Z,31.19
2018-07-24T18:07:41.312Z,31.27
2018-07-24T18:10:10.185Z,31.22
2018-07-24T18:12:38.608Z,31.13
2018-07-24T18:15:06.941Z,31.05
2018-07-24T18:17:35.248Z,30.97
2018-07-24T18:20:03.779Z,30.90
2018-07-24T18:22:32.633Z,31.01
2018-07-24T18:25:01.111Z,30.93
2018-07-24T18:27:29.604Z,30.88
2018-07-24T18:29:58.117Z,30.81
2018-07-24T18:32:26.518Z,30.75
2018-07-24T18:34:55.008Z,30.72
2018-07-24T18:37:23.648Z,30.71
2018-07-24T18:39:52.038Z,30.65
2018-07-24T18:42:20.492Z,30.52
2018-07-24T18:44:48.852Z,30.52
2018-07-24T18:47:17.244Z,30.45
2018-07-24T18:49:45.689Z,30.36
2018-07-24T18:52:14.061Z,30.32
2018-07-24T18:54:42.952Z,30.24
2018-07-24T18:57:11.964Z,30.17
2018-07-24T18:59:41.656Z,30.13
2018-07-24T19:02:10.356Z,30.07
2018-07-24T19:04:39.831Z,29.91
2018-07-24T19:07:09.012Z,29.88
2018-07-24T19:09:37.522Z,29.79
2018-07-24T19:12:05.934Z,29.74
2018-07-24T19:14:34.309Z,29.71
2018-07-24T19:17:02.798Z,29.60
2018-07-24T19:19:31.441Z,29.45
2018-07-24T19:21:59.963Z,29.45
2018-07-24T19:24:28.563Z,29.45
2018-07-24T19:26:57.271Z,29.35
2018-07-24T19:29:25.627Z,29.30
2018-07-24T19:31:54.302Z,29.21
2018-07-24T19:34:23.009Z,29.18
2018-07-24T19:36:52.407Z,29.16
2018-07-24T19:39:20.927Z,29.11
2018-07-24T19:41:49.372Z,29.03
2018-07-24T19:44:17.836Z,28.98
2018-07-24T19:46:46.167Z,28.86
2018-07-24T19:49:14.701Z,28.85
2018-07-24T19:51:43.208Z,28.81
2018-07-24T19:54:11.746Z,28.70
2018-07-24T19:56:40.153Z,28.65
2018-07-24T19:59:08.847Z,28.57
2018-07-24T20:01:37.665Z,28.53
2018-07-24T20:04:08.763Z,28.44
2018-07-24T20:06:37.617Z,28.30
2018-07-24T20:09:09.672Z,28.26
2018-07-24T20:11:38.172Z,28.20
2018-07-24T20:14:07.017Z,28.21
2018-07-24T20:16:35.414Z,28.08
2018-07-24T20:19:04.563Z,27.82
2018-07-24T20:21:32.859Z,27.87
2018-07-24T20:24:01.300Z,27.79
2018-07-24T20:26:29.910Z,27.69
2018-07-24T20:28:58.312Z,27.63
2018-07-24T20:31:26.888Z,27.56
2018-07-24T20:33:55.345Z,27.48
2018-07-24T20:36:23.833Z,27.43
2018-07-24T20:38:52.796Z,27.43
2018-07-24T20:41:21.202Z,27.32
2018-07-24T20:43:49.783Z,27.28
2018-07-24T20:46:18.291Z,27.14
2018-07-24T20:48:46.643Z,27.08
2018-07-24T20:51:15.299Z,26.99
2018-07-24T20:53:43.691Z,26.88
2018-07-24T20:56:12.312Z,26.82
2018-07-24T20:58:41.015Z,26.69
2018-07-24T21:01:10.048Z,26.41
2018-07-24T21:03:38.386Z,26.33
2018-07-24T21:06:06.760Z,26.34
2018-07-24T21:08:35.014Z,26.21
2018-07-24T21:11:03.365Z,26.15
2018-07-24T21:13:31.699Z,26.05
2018-07-24T21:16:00.032Z,25.98
2018-07-24T21:18:28.369Z,25.94
2018-07-24T21:20:56.733Z,25.64
2018-07-24T21:23:25.037Z,25.60
2018-07-24T21:25:53.436Z,25.61
2018-07-24T21:28:21.751Z,25.53
2018-07-24T21:30:50.099Z,25.35
2018-07-24T21:33:18.397Z,25.29
2018-07-24T21:35:46.735Z,25.26
2018-07-24T21:38:15.729Z,25.33
2018-07-24T21:40:44.262Z,25.28
2018-07-24T21:43:12.664Z,25.26
2018-07-24T21:45:41.304Z,25.29
2018-07-24T21:48:09.630Z,25.22
2018-07-24T21:50:37.979Z,25.12
2018-07-24T21:53:06.356Z,25.09
2018-07-24T21:55:34.689Z,24.99
2018-07-24T21:58:03.170Z,24.92
2018-07-24T22:00:35.430Z,24.96
2018-07-24T22:03:04.463Z,24.95
2018-07-24T22:05:33.432Z,24.90
2018-07-24T22:08:01.807Z,24.88
2018-07-24T22:10:30.186Z,24.84
2018-07-24T22:12:58.487Z,24.82
2018-07-24T22:15:27.608Z,24.78
2018-07-24T22:17:56.650Z,24.76
2018-07-24T22:20:25.250Z,24.69
2018-07-24T22:22:53.652Z,24.65
2018-07-24T22:25:22.044Z,24.62
2018-07-24T22:27:50.423Z,24.57
2018-07-24T22:30:18.864Z,24.54
2018-07-24T22:32:47.356Z,24.46
2018-07-24T22:35:15.684Z,24.47
2018-07-24T22:37:44.055Z,24.47
2018-07-24T22:40:12.700Z,24.47
2018-07-24T22:42:41.200Z,24.43
2018-07-24T22:45:09.756Z,24.53
2018-07-24T22:47:38.245Z,24.49
2018-07-24T22:50:07.139Z,24.59
2018-07-24T22:52:35.466Z,24.48
2018-07-24T22:55:03.815Z,24.43
2018-07-24T22:57:32.145Z,24.43
2018-07-24T23:00:00.496Z,24.50
2018-07-24T23:02:28.799Z,24.43
2018-07-24T23:04:57.529Z,24.40
2018-07-24T23:07:27.562Z,24.41
2018-07-24T23:09:55.986Z,24.35
2018-07-24T23:12:24.514Z,24.27
2018-07-24T23:14:52.917Z,24.28
2018-07-24T23:17:21.484Z,24.23
2018-07-24T23:19:50.037Z,24.18
2018-07-24T23:22:18.371Z,24.16
2018-07-24T23:24:46.664Z,24.12
2018-07-24T23:27:15.049Z,24.07
2018-07-24T23:29:43.392Z,24.05
2018-07-24T23:32:11.816Z,24.02
2018-07-24T23:34:40.162Z,23.95
2018-07-24T23:37:08.580Z,23.92
2018-07-24T23:39:36.901Z,23.88
2018-07-24T23:42:05.275Z,23.87
2018-07-24T23:44:33.603Z,23.80
2018-07-24T23:47:02.144Z,23.77
2018-07-24T23:49:30.559Z,23.75
2018-07-24T23:51:59.219Z,23.77
2018-07-24T23:54:27.601Z,23.73
2018-07-24T23:56:55.989Z,23.66
2018-07-24T23:59:24.346Z,23.70
